createdAt,value
2019-02-14T00:02:10.584Z,29.50
2019-02-14T00:04:43.234Z,31.60
2019-02-14T00:07:28.103Z,30.43
2019-02-14T00:13:20.976Z,28.30
2019-02-14T00:15:55.845Z,30.68
2019-02-14T00:18:29.717Z,27.73
2019-02-14T00:21:04.583Z,27.95
2019-02-14T00:23:40.091Z,29.60
2019-02-14T00:26:12.378Z,27.67
2019-02-14T00:28:51.471Z,27.60
2019-02-14T00:31:36.668Z,30.90
2019-02-14T00:34:12.249Z,30.43
2019-02-14T00:36:47.031Z,30.08
2019-02-14T00:39:34.363Z,30.50
2019-02-14T00:42:27.690Z,29.90
2019-02-14T00:45:05.870Z,29.90
2019-02-14T00:47:39.107Z,31.33
2019-02-14T00:50:14.206Z,32.23
2019-02-14T00:52:53.863Z,31.48
2019-02-14T00:55:31.973Z,32.90
2019-02-14T00:58:39.844Z,30.32
2019-02-14T01:01:11.984Z,33.98
2019-02-14T01:03:51.456Z,32.65
2019-02-14T01:06:35.198Z,31.65
2019-02-14T01:09:14.269Z,27.67
2019-02-14T01:11:52.879Z,28.92
2019-02-14T01:14:28.464Z,28.77
2019-02-14T01:17:06.735Z,28.75
2019-02-14T01:19:42.610Z,28.67
2019-02-14T01:22:31.063Z,27.55
2019-02-14T01:25:07.799Z,27.90
2019-02-14T01:27:44.146Z,28.02
2019-02-14T01:30:35.465Z,28.87
2019-02-14T01:33:12.932Z,28.87
2019-02-14T01:35:49.837Z,27.98
2019-02-14T01:38:21.186Z,27.55
2019-02-14T01:40:57.248Z,27.55
2019-02-14T01:43:39.510Z,27.42
2019-02-14T01:46:09.311Z,26.77
2019-02-14T01:48:46.678Z,28.47
2019-02-14T01:51:22.135Z,25.90
2019-02-14T01:53:55.329Z,28.15
2019-02-14T01:56:31.174Z,25.80
2019-02-14T01:59:06.331Z,27.58
2019-02-14T02:01:38.003Z,27.40
2019-02-14T02:04:11.037Z,26.70
2019-02-14T02:06:41.580Z,26.93
2019-02-14T02:09:17.293Z,25.55
2019-02-14T02:11:50.522Z,26.87
2019-02-14T02:14:24.005Z,26.15
2019-02-14T02:16:58.467Z,25.82
2019-02-14T02:19:29.896Z,26.48
2019-02-14T02:22:09.411Z,27.52
2019-02-14T02:24:48.626Z,26.87
2019-02-14T02:27:21.144Z,26.85
2019-02-14T02:29:58.912Z,27.93
2019-02-14T02:32:33.948Z,27.42
2019-02-14T02:35:23.429Z,28.80
2019-02-14T02:38:01.077Z,29.57
2019-02-14T02:43:09.409Z,29.02
2019-02-14T02:45:39.499Z,31.50
2019-02-14T02:48:15.683Z,32.58
2019-02-14T02:50:52.838Z,30.25
2019-02-14T02:53:23.654Z,31.82
2019-02-14T02:55:56.519Z,30.95
2019-02-14T02:58:33.457Z,31.07
2019-02-14T03:01:06.794Z,32.63
2019-02-14T03:03:39.219Z,30.80
2019-02-14T03:06:11.038Z,28.57
2019-02-14T03:08:50.911Z,30.82
2019-02-14T03:11:27.337Z,31.80
2019-02-14T03:13:59.447Z,28.47
2019-02-14T03:16:29.228Z,29.92
2019-02-14T03:19:13.363Z,29.77
2019-02-14T03:21:47.789Z,30.30
2019-02-14T03:24:22.554Z,29.48
2019-02-14T03:26:58.434Z,24.82
2019-02-14T03:29:29.957Z,30.30
2019-02-14T03:32:04.636Z,28.57
2019-02-14T03:34:35.109Z,27.52
2019-02-14T03:37:04.824Z,27.13
2019-02-14T03:39:35.491Z,24.15
2019-02-14T03:42:10.779Z,24.65
2019-02-14T03:44:41.702Z,24.77
2019-02-14T03:47:14.626Z,25.55
2019-02-14T03:50:30.458Z,24.45
2019-02-14T03:53:13.270Z,25.82
2019-02-14T03:55:47.625Z,26.27
2019-02-14T03:58:23.607Z,25.37
2019-02-14T04:00:59.073Z,24.63
2019-02-14T04:03:32.058Z,25.20
2019-02-14T04:06:06.053Z,24.32
2019-02-14T04:12:27.861Z,25.52
2019-02-14T04:15:00.394Z,26.60
2019-02-14T04:17:37.555Z,25.95
2019-02-14T04:20:10.945Z,25.32
2019-02-14T04:22:43.890Z,22.98
2019-02-14T04:25:17.654Z,27.42
2019-02-14T04:27:47.427Z,25.35
2019-02-14T04:30:28.056Z,24.43
2019-02-14T04:33:03.065Z,25.40
2019-02-14T04:35:50.195Z,23.83
2019-02-14T04:38:21.950Z,24.15
2019-02-14T04:40:52.479Z,22.87
2019-02-14T04:43:25.019Z,25.55
2019-02-14T04:45:55.742Z,24.92
2019-02-14T04:48:42.776Z,23.10
2019-02-14T04:51:17.842Z,25.15
2019-02-14T04:53:57.894Z,24.32
2019-02-14T04:56:29.881Z,23.55
2019-02-14T04:59:03.461Z,25.52
2019-02-14T05:01:39.589Z,26.68
2019-02-14T05:04:19.219Z,27.30
2019-02-14T05:06:53.031Z,24.02
2019-02-14T05:09:27.332Z,27.40
2019-02-14T05:11:58.080Z,27.22
2019-02-14T05:14:31.183Z,29.07
2019-02-14T05:17:12.655Z,29.20
2019-02-14T05:19:50.400Z,30.23
2019-02-14T05:22:21.200Z,28.30
2019-02-14T05:24:52.045Z,29.57
2019-02-14T05:27:25.239Z,30.15
2019-02-14T05:29:58.155Z,29.60
2019-02-14T05:32:30.841Z,29.75
2019-02-14T05:35:06.158Z,29.15
2019-02-14T05:37:43.663Z,31.97
2019-02-14T05:40:15.216Z,30.35
2019-02-14T05:42:46.722Z,32.95
2019-02-14T05:45:20.344Z,32.17
2019-02-14T05:47:53.335Z,32.73
2019-02-14T05:50:25.765Z,30.75
2019-02-14T05:52:55.990Z,32.30
2019-02-14T05:55:30.771Z,32.03
2019-02-14T05:58:07.150Z,31.60
2019-02-14T06:00:38.832Z,33.18
2019-02-14T06:03:13.198Z,31.15
2019-02-14T06:05:48.105Z,33.25
2019-02-14T06:08:21.904Z,31.70
2019-02-14T06:10:53.772Z,36.05
2019-02-14T06:13:27.391Z,32.73
2019-02-14T06:15:57.154Z,33.92
2019-02-14T06:18:31.353Z,36.42
2019-02-14T07:18:30.823Z,30.02
2019-02-14T08:00:43.746Z,25.75
2019-02-14T08:03:13.249Z,23.52
2019-02-14T08:05:42.576Z,24.20
2019-02-14T08:08:12.121Z,24.07
2019-02-14T08:10:41.424Z,21.57
2019-02-14T08:13:10.857Z,20.60
2019-02-14T08:15:57.389Z,20.00
2019-02-14T08:18:26.777Z,19.92
2019-02-14T08:21:06.280Z,18.00
2019-02-14T08:23:44.581Z,18.20
2019-02-14T08:26:13.982Z,18.95
2019-02-14T08:28:45.942Z,18.12
2019-02-14T08:31:15.390Z,18.35
2019-02-14T08:33:44.850Z,18.30
2019-02-14T08:36:19.828Z,17.40
2019-02-14T08:38:50.867Z,17.48
2019-02-14T08:41:20.347Z,18.25
2019-02-14T08:43:56.218Z,17.40
2019-02-14T08:46:25.759Z,17.27
2019-02-14T09:40:31.633Z,14.07
2019-02-14T09:43:06.893Z,13.28
2019-02-14T09:49:11.364Z,11.90
2019-02-14T09:52:00.842Z,12.37
2019-02-14T09:54:50.519Z,12.13
2019-02-14T09:57:25.674Z,11.70
2019-02-14T10:00:09.029Z,11.43
2019-02-14T10:02:38.588Z,11.45
2019-02-14T10:05:31.186Z,12.15
2019-02-14T10:11:30.790Z,11.60
2019-02-14T10:14:01.018Z,11.08
2019-02-14T10:16:31.083Z,11.33
2019-02-14T10:19:00.812Z,11.35
2019-02-14T10:21:33.470Z,11.10
2019-02-14T10:24:03.096Z,10.90
2019-02-14T10:26:35.962Z,11.80
2019-02-14T10:29:10.593Z,11.12
2019-02-14T10:31:51.738Z,11.80
2019-02-14T10:34:51.687Z,11.00
2019-02-14T10:37:17.848Z,10.95
2019-02-14T10:39:47.336Z,10.63
2019-02-14T10:42:20.085Z,12.28
2019-02-14T10:44:49.846Z,11.60
2019-02-14T10:47:21.278Z,12.03
2019-02-14T10:49:50.725Z,11.55
2019-02-14T10:52:20.363Z,12.00
2019-02-14T10:54:52.221Z,11.43
2019-02-14T10:57:33.103Z,10.28
2019-02-14T11:00:04.459Z,9.70
2019-02-14T11:02:35.026Z,9.65
2019-02-14T11:05:05.346Z,9.63
2019-02-14T11:07:34.808Z,10.10
2019-02-14T11:10:06.330Z,9.60
2019-02-14T11:12:35.773Z,9.68
2019-02-14T11:15:09.323Z,9.78
2019-02-14T11:17:44.432Z,8.98
2019-02-14T11:20:18.295Z,9.80
2019-02-14T11:22:49.700Z,8.95
2019-02-14T11:25:34.920Z,9.08
2019-02-14T11:28:23.855Z,8.98
2019-02-14T11:30:53.489Z,8.63
2019-02-14T11:33:24.823Z,8.48
2019-02-14T11:35:57.766Z,7.87
2019-02-14T11:38:40.544Z,9.13
2019-02-14T11:41:17.844Z,8.93
2019-02-14T11:44:23.161Z,8.58
2019-02-14T11:47:23.165Z,8.70
2019-02-14T11:50:06.597Z,8.48
2019-02-14T11:52:47.031Z,8.75
2019-02-14T11:55:20.148Z,9.20
2019-02-14T11:57:57.226Z,8.68
2019-02-14T12:00:30.637Z,9.48
2019-02-14T12:03:18.760Z,8.40
2019-02-14T12:06:06.326Z,9.18
2019-02-14T12:08:57.721Z,9.10
2019-02-14T12:11:28.080Z,7.97
2019-02-14T12:14:17.121Z,8.35
2019-02-14T12:17:14.303Z,8.63
2019-02-14T12:20:01.629Z,8.63
2019-02-14T12:28:34.208Z,10.58
2019-02-14T12:31:03.665Z,10.50
2019-02-14T12:33:33.394Z,10.90
2019-02-14T12:36:02.936Z,9.38
2019-02-14T12:38:36.560Z,9.75
2019-02-14T12:41:10.687Z,9.70
2019-02-14T12:43:42.944Z,9.25
2019-02-14T12:46:12.835Z,10.23
2019-02-14T12:48:45.176Z,9.60
2019-02-14T12:51:14.441Z,9.35
2019-02-14T12:53:44.507Z,10.05
2019-02-14T12:56:15.028Z,10.28
2019-02-14T12:58:50.640Z,10.13
2019-02-14T13:01:22.415Z,9.30
2019-02-14T13:03:52.663Z,9.33
2019-02-14T13:06:22.663Z,9.23
2019-02-14T13:08:52.224Z,9.00
2019-02-14T13:11:21.672Z,9.43
2019-02-14T13:13:51.124Z,9.18
2019-02-14T13:16:20.923Z,10.13
2019-02-14T13:18:50.811Z,10.32
2019-02-14T13:21:20.331Z,9.40
2019-02-14T13:23:49.931Z,9.73
2019-02-14T13:26:19.475Z,10.40
2019-02-14T13:28:49.178Z,9.80
2019-02-14T13:31:18.771Z,9.90
2019-02-14T13:33:48.288Z,9.40
2019-02-14T13:36:17.700Z,10.03
2019-02-14T13:38:47.577Z,10.28
2019-02-14T13:41:17.953Z,9.45
2019-02-14T13:44:05.471Z,10.32
2019-02-14T13:46:31.943Z,10.58
2019-02-14T13:49:02.723Z,9.38
2019-02-14T13:51:32.311Z,10.23
2019-02-14T13:54:01.760Z,9.60
2019-02-14T13:56:32.278Z,9.55
2019-02-14T13:59:01.913Z,10.28
2019-02-14T14:01:32.316Z,9.25
2019-02-14T14:04:01.889Z,10.40
2019-02-14T14:06:31.236Z,9.58
2019-02-14T14:09:02.630Z,9.60
2019-02-14T14:11:32.136Z,9.55
2019-02-14T14:14:01.599Z,9.63
2019-02-14T14:25:56.276Z,9.20
2019-02-14T14:31:28.525Z,8.88
2019-02-14T14:33:58.906Z,10.63
2019-02-14T14:36:28.451Z,9.00
2019-02-14T14:42:02.683Z,9.65
2019-02-14T14:44:37.691Z,9.10
2019-02-14T14:47:18.633Z,8.98
2019-02-14T14:49:48.100Z,7.75
2019-02-14T14:52:17.582Z,8.88
2019-02-14T14:54:46.975Z,8.95
2019-02-14T14:57:16.364Z,9.35
2019-02-14T14:59:45.612Z,9.15
2019-02-14T15:02:14.979Z,8.45
2019-02-14T15:04:46.065Z,9.48
2019-02-14T15:07:15.421Z,9.25
2019-02-14T15:09:46.834Z,9.53
2019-02-14T15:12:15.788Z,8.70
2019-02-14T15:14:45.872Z,8.73
2019-02-14T15:17:15.458Z,9.53
2019-02-14T15:19:49.376Z,9.00
2019-02-14T15:22:21.592Z,8.88
2019-02-14T15:24:51.012Z,9.50
2019-02-14T15:27:20.978Z,8.43
2019-02-14T15:29:50.307Z,10.55
2019-02-14T15:32:19.694Z,9.93
2019-02-14T15:34:49.006Z,9.43
2019-02-14T15:37:18.239Z,8.20
2019-02-14T15:39:47.752Z,8.80
2019-02-14T15:42:17.191Z,9.50
2019-02-14T15:44:46.581Z,9.13
2019-02-14T16:30:24.274Z,9.65
2019-02-14T16:33:16.466Z,8.63
2019-02-14T16:36:00.323Z,8.48
2019-02-14T16:47:37.828Z,8.75
2019-02-14T16:50:23.967Z,9.60
2019-02-14T16:53:07.849Z,9.30
2019-02-14T17:02:02.160Z,10.53
2019-02-14T17:13:14.423Z,12.23
2019-02-14T17:24:20.098Z,12.82
2019-02-14T17:26:50.875Z,10.68
2019-02-14T17:29:21.937Z,12.03
2019-02-14T17:31:53.349Z,11.75
2019-02-14T17:34:24.408Z,12.63
2019-02-14T17:37:00.215Z,13.55
2019-02-14T17:42:35.423Z,12.03
2019-02-14T17:45:23.740Z,12.45
2019-02-14T17:50:36.169Z,11.15
2019-02-14T17:53:08.045Z,12.20
2019-02-14T17:55:37.819Z,11.48
2019-02-14T17:58:07.371Z,12.18
2019-02-14T18:00:36.791Z,13.22
2019-02-14T18:03:06.242Z,11.88
2019-02-14T18:05:37.507Z,12.85
2019-02-14T18:08:07.971Z,16.40
2019-02-14T18:10:38.170Z,22.95
2019-02-14T18:13:15.318Z,27.65
2019-02-14T18:15:44.843Z,24.95
2019-02-14T18:18:14.215Z,24.32
2019-02-14T18:20:43.544Z,22.25
2019-02-14T18:23:12.984Z,20.70
2019-02-14T18:25:42.473Z,19.10
2019-02-14T18:28:11.865Z,18.62
2019-02-14T18:30:41.370Z,18.35
2019-02-14T18:33:11.591Z,17.75
2019-02-14T18:35:41.133Z,17.87
2019-02-14T18:38:10.699Z,19.12
2019-02-14T18:40:40.213Z,18.40
2019-02-14T18:43:09.831Z,18.42
2019-02-14T18:45:42.275Z,18.02
2019-02-14T18:48:18.589Z,20.12
2019-02-14T18:50:48.467Z,21.25
2019-02-14T18:53:18.450Z,20.32
2019-02-14T18:55:47.929Z,20.25
2019-02-14T18:58:26.009Z,19.80
2019-02-14T19:00:51.597Z,19.42
2019-02-14T19:03:20.998Z,19.70
2019-02-14T19:05:53.624Z,19.17
2019-02-14T19:08:23.971Z,19.37
2019-02-14T19:10:53.395Z,19.52
2019-02-14T19:13:22.954Z,18.20
2019-02-14T19:15:52.482Z,18.55
2019-02-14T19:18:21.869Z,19.50
2019-02-14T19:20:51.331Z,18.87
2019-02-14T19:23:24.060Z,18.67
2019-02-14T19:25:51.799Z,18.50
2019-02-14T19:28:21.568Z,18.85
2019-02-14T19:30:50.953Z,18.48
2019-02-14T19:33:41.569Z,17.87
2019-02-14T19:36:27.979Z,17.62
2019-02-14T19:39:03.563Z,19.20
2019-02-14T19:41:33.262Z,17.82
2019-02-14T19:44:06.173Z,18.95
2019-02-14T19:46:50.234Z,19.27
2019-02-14T19:49:24.021Z,17.80
2019-02-14T19:51:54.487Z,17.42
2019-02-14T19:54:26.176Z,19.70
2019-02-14T19:57:13.380Z,17.73
2019-02-14T19:59:43.122Z,19.37
2019-02-14T20:02:17.595Z,18.50
2019-02-14T20:04:49.474Z,17.52
2019-02-14T20:07:32.908Z,19.62
2019-02-14T20:10:18.445Z,19.17
2019-02-14T20:12:54.136Z,17.80
2019-02-14T20:15:26.420Z,18.55
2019-02-14T20:21:02.467Z,18.17
2019-02-14T20:23:35.185Z,20.92
2019-02-14T20:26:14.516Z,19.77
2019-02-14T20:37:33.872Z,19.60
2019-02-14T20:40:10.987Z,18.30
2019-02-14T20:42:43.024Z,17.17
2019-02-14T20:45:16.809Z,16.57
2019-02-14T20:47:47.938Z,16.77
2019-02-14T20:50:26.386Z,16.93
2019-02-14T21:14:21.821Z,16.45
2019-02-14T21:26:06.790Z,17.60
2019-02-14T21:28:56.716Z,16.77
2019-02-14T21:31:50.910Z,15.68
2019-02-14T21:34:28.553Z,15.60
2019-02-14T21:39:47.514Z,15.48
2019-02-14T21:54:06.135Z,17.32
2019-02-14T21:56:42.360Z,16.37
2019-02-14T22:05:05.297Z,15.80
2019-02-14T22:07:36.134Z,15.68
2019-02-14T22:13:59.042Z,15.20
2019-02-14T22:16:46.085Z,15.60
2019-02-14T22:19:32.995Z,16.07
2019-02-14T22:22:05.828Z,14.68
2019-02-14T22:24:36.668Z,15.25
2019-02-14T22:27:16.412Z,13.95
2019-02-14T22:45:23.995Z,14.18
2019-02-14T22:48:01.998Z,14.10
2019-02-14T22:50:42.304Z,12.07
2019-02-14T22:56:22.061Z,12.18
2019-02-14T22:58:55.309Z,12.05
2019-02-14T23:01:35.986Z,11.60
2019-02-14T23:04:08.609Z,12.33
2019-02-14T23:06:38.343Z,12.15
2019-02-14T23:09:14.290Z,12.13
2019-02-14T23:11:46.235Z,11.45
2019-02-14T23:14:22.785Z,12.65
2019-02-14T23:16:58.550Z,11.73
2019-02-14T23:19:30.164Z,10.98
2019-02-14T23:22:00.434Z,10.93
2019-02-14T23:24:35.533Z,12.00
2019-02-14T23:27:05.799Z,10.93
2019-02-14T23:29:37.161Z,11.00
2019-02-14T23:32:08.483Z,11.53
2019-02-14T23:34:39.076Z,11.33
2019-02-14T23:37:12.676Z,11.97
2019-02-14T23:39:43.972Z,11.70
2019-02-14T23:42:19.330Z,10.65
2019-02-14T23:44:50.738Z,10.82
2019-02-14T23:47:22.978Z,11.35
2019-02-14T23:49:52.678Z,11.40
2019-02-14T23:52:24.202Z,11.43
2019-02-14T23:55:00.397Z,10.20
2019-02-14T23:57:29.733Z,10.70
